createdAt,value
2023-03-22T00:00:15.129Z,19.25
2023-03-22T00:01:20.562Z,17.75
2023-03-22T00:02:22.856Z,16.75
2023-03-22T00:03:27.600Z,19.75
2023-03-22T00:04:29.276Z,17.75
2023-03-22T00:05:31.873Z,18.00
2023-03-22T00:06:33.500Z,18.75
2023-03-22T00:07:37.629Z,21.00
2023-03-22T00:08:39.453Z,20.75
2023-03-22T00:09:42.093Z,21.25
2023-03-22T00:10:43.738Z,21.75
2023-03-22T00:11:50.751Z,22.50
2023-03-22T00:12:52.549Z,19.00
2023-03-22T00:13:58.745Z,16.75
2023-03-22T00:15:01.065Z,20.25
2023-03-22T00:16:03.746Z,19.50
2023-03-22T00:17:05.705Z,19.50
2023-03-22T00:18:08.324Z,22.50
2023-03-22T00:19:10.049Z,19.25
2023-03-22T00:20:12.967Z,24.25
2023-03-22T00:21:15.358Z,23.50
2023-03-22T00:22:18.007Z,26.00
2023-03-22T00:23:19.922Z,22.75
2023-03-22T00:24:22.569Z,20.75
2023-03-22T00:25:24.236Z,24.75
2023-03-22T00:26:26.857Z,22.75
2023-03-22T00:27:28.553Z,21.50
2023-03-22T00:28:31.210Z,24.50
2023-03-22T00:29:34.223Z,24.25
2023-03-22T00:30:37.076Z,23.00
2023-03-22T00:31:41.084Z,24.25
2023-03-22T00:32:42.802Z,27.00
2023-03-22T00:33:45.616Z,21.50
2023-03-22T00:34:47.504Z,24.00
2023-03-22T00:35:51.441Z,23.00
2023-03-22T00:36:53.117Z,23.50
2023-03-22T00:37:55.752Z,23.00
2023-03-22T00:38:57.521Z,22.00
2023-03-22T00:40:00.173Z,21.25
2023-03-22T00:41:06.088Z,23.25
2023-03-22T00:42:08.723Z,23.25
2023-03-22T00:43:10.359Z,22.50
2023-03-22T00:44:12.996Z,20.25
2023-03-22T00:45:16.150Z,20.25
2023-03-22T00:46:20.404Z,18.25
2023-03-22T00:47:23.077Z,19.00
2023-03-22T00:48:25.908Z,19.75
2023-03-22T00:49:27.676Z,20.00
2023-03-22T00:50:30.283Z,19.25
2023-03-22T00:51:31.944Z,17.00
2023-03-22T00:52:34.597Z,20.50
2023-03-22T00:53:36.523Z,20.50
2023-03-22T00:54:39.461Z,20.75
2023-03-22T00:55:41.095Z,19.50
2023-03-22T00:56:45.433Z,18.25
2023-03-22T00:57:47.121Z,20.50
2023-03-22T00:58:49.840Z,21.00
2023-03-22T00:59:53.872Z,18.75
2023-03-22T01:00:57.902Z,21.75
2023-03-22T01:01:59.565Z,21.25
2023-03-22T01:03:04.689Z,22.75
2023-03-22T01:04:06.489Z,21.75
2023-03-22T01:05:09.594Z,21.75
2023-03-22T01:06:11.315Z,21.00
2023-03-22T01:07:17.936Z,19.50
2023-03-22T01:08:19.608Z,26.50
2023-03-22T01:09:23.876Z,22.75
2023-03-22T01:10:25.739Z,19.25
2023-03-22T01:11:28.411Z,24.25
2023-03-22T01:12:30.156Z,27.00
2023-03-22T01:13:32.798Z,24.75
2023-03-22T01:14:34.458Z,21.50
2023-03-22T01:15:37.088Z,23.25
2023-03-22T01:16:40.123Z,20.25
2023-03-22T01:17:43.272Z,20.25
2023-03-22T01:18:44.975Z,21.00
2023-03-22T01:19:47.597Z,19.00
2023-03-22T01:20:49.242Z,23.25
2023-03-22T01:21:51.967Z,20.50
2023-03-22T01:22:53.632Z,23.50
2023-03-22T01:23:56.275Z,21.25
2023-03-22T01:24:57.947Z,23.50
2023-03-22T01:26:01.316Z,27.25
2023-03-22T01:27:03.002Z,23.50
2023-03-22T01:28:06.786Z,24.00
2023-03-22T01:29:08.571Z,26.25
2023-03-22T01:30:11.793Z,22.50
2023-03-22T01:31:13.482Z,28.25
2023-03-22T01:32:17.479Z,23.75
2023-03-22T01:33:19.128Z,23.75
2023-03-22T01:34:22.258Z,24.00
2023-03-22T01:35:24.174Z,23.50
2023-03-22T01:36:26.990Z,25.50
2023-03-22T01:37:28.639Z,20.00
2023-03-22T01:38:31.254Z,25.25
2023-03-22T01:39:32.952Z,23.25
2023-03-22T01:40:35.681Z,22.00
2023-03-22T01:41:37.489Z,26.75
2023-03-22T01:42:40.249Z,25.50
2023-03-22T01:43:41.920Z,24.75
2023-03-22T01:44:46.896Z,23.75
2023-03-22T01:45:48.844Z,21.75
2023-03-22T01:46:53.323Z,24.00
2023-03-22T01:47:57.865Z,24.50
2023-03-22T01:49:00.560Z,26.00
2023-03-22T01:50:02.354Z,22.25
2023-03-22T01:51:07.742Z,23.00
2023-03-22T01:52:11.170Z,21.50
2023-03-22T01:53:14.132Z,23.00
2023-03-22T01:54:18.318Z,23.00
2023-03-22T01:55:22.747Z,22.75
2023-03-22T01:56:25.756Z,23.50
2023-03-22T01:57:28.378Z,27.00
2023-03-22T01:58:30.062Z,21.75
2023-03-22T01:59:32.689Z,24.00
2023-03-22T02:00:34.377Z,23.00
2023-03-22T02:01:37.031Z,27.75
2023-03-22T02:02:38.843Z,20.00
2023-03-22T02:03:46.312Z,23.50
2023-03-22T02:04:50.528Z,24.00
2023-03-22T02:05:53.202Z,26.00
2023-03-22T02:06:55.561Z,25.00
2023-03-22T02:07:58.247Z,24.75
2023-03-22T02:08:59.892Z,22.00
2023-03-22T02:10:02.636Z,24.00
2023-03-22T02:11:04.801Z,23.25
2023-03-22T02:12:13.469Z,25.00
2023-03-22T02:14:00.849Z,20.75
2023-03-22T02:15:05.232Z,20.00
2023-03-22T02:16:14.158Z,25.00
2023-03-22T02:17:24.879Z,21.25
2023-03-22T02:18:35.634Z,23.50
2023-03-22T02:20:11.051Z,20.50
2023-03-22T02:21:50.184Z,21.25
2023-03-22T02:23:32.623Z,23.75
2023-03-22T02:25:02.124Z,20.00
2023-03-22T02:26:36.416Z,23.50
2023-03-22T02:27:59.563Z,24.00
2023-03-22T02:29:01.465Z,25.50
2023-03-22T02:30:25.841Z,25.75
2023-03-22T02:31:47.089Z,23.75
2023-03-22T02:33:00.126Z,23.00
2023-03-22T02:34:29.787Z,21.25
2023-03-22T02:35:40.261Z,24.25
2023-03-22T02:36:58.299Z,22.75
2023-03-22T02:38:33.118Z,26.25
2023-03-22T02:39:39.363Z,22.75
2023-03-22T02:40:42.446Z,27.50
2023-03-22T02:41:51.971Z,24.25
2023-03-22T02:42:56.492Z,22.00
2023-03-22T02:44:04.051Z,26.50
2023-03-22T02:45:08.275Z,23.25
2023-03-22T02:46:11.997Z,24.25
2023-03-22T02:47:20.480Z,27.50
2023-03-22T02:48:26.064Z,22.25
2023-03-22T02:49:31.197Z,26.75
2023-03-22T02:50:36.924Z,26.50
2023-03-22T02:51:41.122Z,27.50
2023-03-22T02:52:45.412Z,23.50
2023-03-22T02:53:48.456Z,25.25
2023-03-22T02:54:54.000Z,27.50
2023-03-22T02:55:57.351Z,24.00
2023-03-22T02:57:00.673Z,23.75
2023-03-22T02:58:05.571Z,25.00
2023-03-22T02:59:07.395Z,23.25
2023-03-22T03:00:12.411Z,26.75
2023-03-22T03:01:18.203Z,25.50
2023-03-22T03:02:21.031Z,24.25
2023-03-22T03:03:25.555Z,24.50
2023-03-22T03:04:29.691Z,23.50
2023-03-22T03:05:31.312Z,24.50
2023-03-22T03:06:38.877Z,28.00
2023-03-22T03:07:41.152Z,23.75
2023-03-22T03:08:43.768Z,25.00
2023-03-22T03:09:45.663Z,26.00
2023-03-22T03:10:49.624Z,21.75
2023-03-22T03:11:52.380Z,24.25
2023-03-22T03:12:54.968Z,22.50
2023-03-22T03:13:56.763Z,22.00
2023-03-22T03:14:59.356Z,23.00
2023-03-22T03:16:01.349Z,22.00
2023-03-22T03:17:09.558Z,27.00
2023-03-22T03:18:19.377Z,28.25
2023-03-22T03:19:23.791Z,24.50
2023-03-22T03:20:30.950Z,23.25
2023-03-22T03:21:34.734Z,22.00
2023-03-22T03:22:47.149Z,24.00
2023-03-22T03:23:51.962Z,24.75
2023-03-22T03:24:58.027Z,24.75
2023-03-22T03:26:02.627Z,22.50
2023-03-22T03:27:06.714Z,21.00
2023-03-22T03:28:11.327Z,22.00
2023-03-22T03:29:17.072Z,25.00
2023-03-22T03:30:20.587Z,25.25
2023-03-22T03:31:29.078Z,23.00
2023-03-22T03:32:35.134Z,23.25
2023-03-22T03:33:41.138Z,23.75
2023-03-22T03:34:45.490Z,21.50
2023-03-22T03:35:50.123Z,22.25
2023-03-22T03:36:54.658Z,27.75
2023-03-22T03:37:59.254Z,23.75
2023-03-22T03:39:00.886Z,23.00
2023-03-22T03:40:09.563Z,24.25
2023-03-22T03:41:13.756Z,22.00
2023-03-22T03:42:16.580Z,25.00
2023-03-22T03:43:18.255Z,22.50
2023-03-22T03:44:21.428Z,22.00
2023-03-22T03:45:23.068Z,22.00
2023-03-22T03:46:25.885Z,24.50
2023-03-22T03:47:29.504Z,21.50
2023-03-22T03:48:32.595Z,22.50
2023-03-22T03:49:35.237Z,20.50
2023-03-22T03:50:36.933Z,22.50
2023-03-22T03:51:47.580Z,23.50
2023-03-22T03:52:49.200Z,22.25
2023-03-22T03:53:51.812Z,21.75
2023-03-22T03:54:53.466Z,21.25
2023-03-22T03:55:56.057Z,24.75
2023-03-22T03:56:59.047Z,20.00
2023-03-22T03:58:01.665Z,21.50
2023-03-22T03:59:03.376Z,24.75
2023-03-22T04:00:07.192Z,20.75
2023-03-22T04:01:08.838Z,22.00
2023-03-22T04:02:11.805Z,24.75
2023-03-22T04:03:13.669Z,23.25
2023-03-22T04:04:16.532Z,23.00
2023-03-22T04:05:18.396Z,20.50
2023-03-22T04:06:21.050Z,25.00
2023-03-22T04:07:22.662Z,22.75
2023-03-22T04:08:25.271Z,21.75
2023-03-22T04:09:28.412Z,26.25
2023-03-22T04:10:31.071Z,23.00
2023-03-22T04:11:32.686Z,20.25
2023-03-22T04:12:36.636Z,25.75
2023-03-22T04:13:38.265Z,22.25
2023-03-22T04:14:41.696Z,25.75
2023-03-22T04:15:43.316Z,23.75
2023-03-22T04:16:45.938Z,23.25
2023-03-22T04:17:47.657Z,23.50
2023-03-22T04:18:50.252Z,22.25
2023-03-22T04:19:53.529Z,25.25
2023-03-22T04:20:57.186Z,22.00
2023-03-22T04:22:00.278Z,23.00
2023-03-22T04:23:02.873Z,23.00
2023-03-22T04:24:04.723Z,25.00
2023-03-22T04:25:11.674Z,24.25
2023-03-22T04:26:13.378Z,22.50
2023-03-22T04:27:15.963Z,22.50
2023-03-22T04:28:19.722Z,19.25
2023-03-22T04:29:23.072Z,24.75
2023-03-22T04:30:24.727Z,22.00
2023-03-22T04:31:27.432Z,23.25
2023-03-22T04:32:29.064Z,23.50
2023-03-22T04:33:32.506Z,21.75
2023-03-22T04:34:34.124Z,21.75
2023-03-22T04:35:36.735Z,23.00
2023-03-22T04:36:39.575Z,26.00
2023-03-22T04:37:43.024Z,27.00
2023-03-22T04:38:44.652Z,23.00
2023-03-22T04:39:47.250Z,26.25
2023-03-22T04:40:50.296Z,22.50
2023-03-22T04:41:52.899Z,25.75
2023-03-22T04:42:57.421Z,24.00
2023-03-22T04:44:03.141Z,25.50
2023-03-22T04:45:05.934Z,24.25
2023-03-22T04:46:09.955Z,22.50
2023-03-22T04:47:11.648Z,23.00
2023-03-22T04:48:14.272Z,23.00
2023-03-22T04:49:15.930Z,20.75
2023-03-22T04:50:18.581Z,25.50
2023-03-22T04:51:21.157Z,23.50
2023-03-22T04:52:22.781Z,24.75
2023-03-22T04:53:27.309Z,24.75
2023-03-22T04:54:28.946Z,23.50
2023-03-22T04:55:31.531Z,23.00
2023-03-22T04:56:33.159Z,24.75
2023-03-22T04:57:35.831Z,22.50
2023-03-22T04:58:38.694Z,24.00
2023-03-22T04:59:42.822Z,24.75
2023-03-22T05:00:44.433Z,22.75
2023-03-22T05:01:47.195Z,21.50
2023-03-22T05:02:49.556Z,20.50
2023-03-22T05:03:52.213Z,20.50
2023-03-22T05:04:53.830Z,23.75
2023-03-22T05:05:57.473Z,19.75
2023-03-22T05:06:59.079Z,21.00
2023-03-22T05:08:01.677Z,19.00
2023-03-22T05:09:03.675Z,20.00
2023-03-22T05:10:07.339Z,20.25
2023-03-22T05:11:10.341Z,22.00
2023-03-22T05:12:12.930Z,22.50
2023-03-22T05:13:14.589Z,22.00
2023-03-22T05:14:17.225Z,25.25
2023-03-22T05:15:20.228Z,23.25
2023-03-22T05:16:22.829Z,20.00
2023-03-22T05:17:24.468Z,22.75
2023-03-22T05:18:27.583Z,20.75
2023-03-22T05:19:29.232Z,18.25
2023-03-22T05:20:32.491Z,24.00
2023-03-22T05:21:36.862Z,19.25
2023-03-22T05:22:40.491Z,22.75
2023-03-22T05:23:42.807Z,21.75
2023-03-22T05:24:45.510Z,19.75
2023-03-22T05:25:47.253Z,20.50
2023-03-22T05:26:53.722Z,21.25
2023-03-22T05:27:55.866Z,21.50
2023-03-22T05:28:58.461Z,21.50
2023-03-22T05:30:00.305Z,20.00
2023-03-22T05:31:04.338Z,23.75
2023-03-22T05:32:06.255Z,20.50
2023-03-22T05:33:09.474Z,23.00
2023-03-22T05:34:11.078Z,19.50
2023-03-22T05:35:14.066Z,20.25
2023-03-22T05:36:15.837Z,20.25
2023-03-22T05:37:21.142Z,20.00
2023-03-22T05:38:22.947Z,20.00
2023-03-22T05:39:25.642Z,21.50
2023-03-22T05:40:27.561Z,19.50
2023-03-22T05:41:31.620Z,20.00
2023-03-22T05:42:33.238Z,19.00
2023-03-22T05:43:35.870Z,19.75
2023-03-22T05:44:37.484Z,22.75
2023-03-22T05:45:40.187Z,20.00
2023-03-22T05:46:43.183Z,19.50
2023-03-22T05:47:45.887Z,20.25
2023-03-22T05:48:47.661Z,22.50
2023-03-22T05:49:50.580Z,22.00
2023-03-22T05:50:52.214Z,21.00
2023-03-22T05:51:55.232Z,23.00
2023-03-22T05:52:57.331Z,21.50
2023-03-22T05:54:00.017Z,19.75
2023-03-22T05:55:01.670Z,17.25
2023-03-22T05:56:04.561Z,21.00
2023-03-22T05:57:06.184Z,19.75
2023-03-22T05:58:09.093Z,20.50
2023-03-22T05:59:10.861Z,20.00
2023-03-22T06:00:16.107Z,20.50
2023-03-22T06:01:17.780Z,20.75
2023-03-22T06:02:22.034Z,22.50
2023-03-22T06:03:23.687Z,22.00
2023-03-22T06:04:26.290Z,21.75
2023-03-22T06:05:27.935Z,22.25
2023-03-22T06:06:30.506Z,22.25
2023-03-22T06:07:32.137Z,23.50
2023-03-22T06:08:34.749Z,17.25
2023-03-22T06:09:36.373Z,21.50
2023-03-22T06:10:39.248Z,19.50
2023-03-22T06:11:41.132Z,21.25
2023-03-22T06:12:43.759Z,17.50
2023-03-22T06:13:45.435Z,22.00
2023-03-22T06:14:48.019Z,19.00
2023-03-22T06:15:49.660Z,19.00
2023-03-22T06:16:52.939Z,17.00
2023-03-22T06:17:56.959Z,19.00
2023-03-22T06:18:58.581Z,16.50
2023-03-22T06:20:01.171Z,19.50
2023-03-22T06:21:02.815Z,16.50
2023-03-22T06:22:05.423Z,14.25
2023-03-22T06:23:07.083Z,15.50
2023-03-22T06:24:10.000Z,14.75
2023-03-22T06:25:11.615Z,19.25
2023-03-22T06:26:14.205Z,18.25
2023-03-22T06:27:16.202Z,17.25
2023-03-22T06:28:18.814Z,13.75
2023-03-22T06:29:20.430Z,15.00
2023-03-22T06:30:23.122Z,13.75
2023-03-22T06:31:24.752Z,14.00
2023-03-22T06:32:27.570Z,16.00
2023-03-22T06:33:30.715Z,12.00
2023-03-22T06:34:33.451Z,11.25
2023-03-22T06:35:35.211Z,13.50
2023-03-22T06:36:37.868Z,16.75
2023-03-22T06:37:39.537Z,14.00
2023-03-22T06:38:42.135Z,13.00
2023-03-22T06:39:43.740Z,15.50
2023-03-22T06:40:46.315Z,15.00
2023-03-22T06:41:48.016Z,17.25
2023-03-22T06:42:50.595Z,15.00
2023-03-22T06:43:52.228Z,17.00
2023-03-22T06:44:54.835Z,17.50
2023-03-22T06:45:57.991Z,16.25
2023-03-22T06:46:59.647Z,14.50
2023-03-22T06:48:02.306Z,14.00
2023-03-22T06:49:05.315Z,12.25
2023-03-22T06:50:08.512Z,14.75
2023-03-22T06:51:10.206Z,14.00
2023-03-22T06:52:12.788Z,13.50
2023-03-22T06:53:15.688Z,12.50
2023-03-22T06:54:17.324Z,12.50
2023-03-22T06:55:19.915Z,14.00
2023-03-22T06:56:21.586Z,11.25
2023-03-22T06:57:24.193Z,15.75
2023-03-22T06:58:25.943Z,15.50
2023-03-22T06:59:28.722Z,14.00
2023-03-22T07:00:31.934Z,14.00
2023-03-22T07:01:33.715Z,13.50
2023-03-22T07:02:36.889Z,12.75
2023-03-22T07:03:38.503Z,11.00
2023-03-22T07:04:42.611Z,15.75
2023-03-22T07:05:44.415Z,12.75
2023-03-22T07:06:47.036Z,13.25
2023-03-22T07:07:48.659Z,11.50
2023-03-22T07:08:52.150Z,12.75
2023-03-22T07:09:54.026Z,12.00
2023-03-22T07:10:56.636Z,14.00
2023-03-22T07:11:58.275Z,12.25
2023-03-22T07:13:02.937Z,14.00
2023-03-22T07:14:04.545Z,12.00
2023-03-22T07:15:08.193Z,12.50
2023-03-22T07:16:10.203Z,11.50
2023-03-22T07:17:14.167Z,10.75
2023-03-22T07:18:15.799Z,12.50
2023-03-22T07:19:18.406Z,10.75
2023-03-22T07:20:21.449Z,10.00
2023-03-22T07:21:24.070Z,11.75
2023-03-22T07:22:25.851Z,11.00
2023-03-22T07:23:28.453Z,10.50
2023-03-22T07:24:30.260Z,13.50
2023-03-22T07:25:32.861Z,13.00
2023-03-22T07:26:34.522Z,12.00
2023-03-22T07:27:37.367Z,10.00
2023-03-22T07:28:41.370Z,10.50
2023-03-22T07:29:43.967Z,10.75
2023-03-22T07:30:45.618Z,10.00
2023-03-22T07:31:48.235Z,10.25
2023-03-22T07:32:50.054Z,10.50
2023-03-22T07:33:53.075Z,10.00
2023-03-22T07:34:54.689Z,10.50
2023-03-22T07:35:58.680Z,10.75
2023-03-22T07:37:00.368Z,11.00
2023-03-22T07:38:03.098Z,11.00
2023-03-22T07:39:05.835Z,11.00
2023-03-22T07:40:09.756Z,11.50
2023-03-22T07:41:11.439Z,12.50
2023-03-22T07:42:14.120Z,11.50
2023-03-22T07:43:15.758Z,11.50
2023-03-22T07:44:18.664Z,11.25
2023-03-22T07:45:22.197Z,11.00
2023-03-22T07:46:23.904Z,11.00
2023-03-22T07:47:40.075Z,11.00
2023-03-22T07:48:42.254Z,10.00
2023-03-22T07:49:44.870Z,8.50
2023-03-22T07:50:46.624Z,12.00
2023-03-22T07:51:50.620Z,11.50
2023-03-22T07:52:52.325Z,10.00
2023-03-22T07:53:54.901Z,9.25
2023-03-22T07:54:56.523Z,10.50
2023-03-22T07:55:59.102Z,7.50
2023-03-22T07:57:01.141Z,10.25
2023-03-22T07:58:03.871Z,9.75
2023-03-22T07:59:06.315Z,12.00
2023-03-22T08:00:10.851Z,9.00
2023-03-22T08:01:13.456Z,9.75
2023-03-22T08:02:16.094Z,9.50
2023-03-22T08:03:18.796Z,9.75
2023-03-22T08:04:22.382Z,8.75
2023-03-22T08:05:25.032Z,8.00
2023-03-22T08:06:26.646Z,8.00
2023-03-22T08:07:31.610Z,8.00
2023-03-22T08:08:33.507Z,8.00
2023-03-22T08:09:36.259Z,11.00
2023-03-22T08:10:38.353Z,10.75
2023-03-22T08:11:41.191Z,10.25
2023-03-22T08:12:42.828Z,8.25
2023-03-22T08:13:45.594Z,8.25
2023-03-22T08:14:50.870Z,9.25
2023-03-22T08:15:53.475Z,10.25
2023-03-22T08:16:55.159Z,9.50
2023-03-22T08:17:58.013Z,7.50
2023-03-22T08:19:00.723Z,8.00
2023-03-22T08:20:08.813Z,10.00
2023-03-22T08:21:11.424Z,8.00
2023-03-22T08:22:13.682Z,9.75
2023-03-22T08:23:17.628Z,11.00
2023-03-22T08:24:20.346Z,9.00
2023-03-22T08:25:22.135Z,8.00
2023-03-22T08:26:24.735Z,8.00
2023-03-22T08:27:27.296Z,8.00
2023-03-22T08:28:29.899Z,8.75
2023-03-22T08:29:31.532Z,8.75
2023-03-22T08:30:34.122Z,8.50
2023-03-22T08:31:35.756Z,9.25
2023-03-22T08:32:38.378Z,7.00
2023-03-22T08:33:40.248Z,8.25
2023-03-22T08:34:43.334Z,8.00
2023-03-22T08:35:45.253Z,9.00
2023-03-22T08:36:47.877Z,10.75
2023-03-22T08:37:53.270Z,8.25
2023-03-22T08:38:57.221Z,7.25
2023-03-22T08:39:58.935Z,8.25
2023-03-22T08:41:01.535Z,9.00
2023-03-22T08:42:04.172Z,8.00
2023-03-22T08:43:06.776Z,9.50
2023-03-22T08:44:08.535Z,8.00
2023-03-22T08:45:11.666Z,8.50
2023-03-22T08:46:13.351Z,8.00
2023-03-22T08:47:16.036Z,8.00
2023-03-22T08:48:17.708Z,11.00
2023-03-22T08:49:20.401Z,8.00
2023-03-22T08:50:22.028Z,10.75
2023-03-22T08:51:25.177Z,8.00
2023-03-22T08:52:26.814Z,8.50
2023-03-22T08:53:29.556Z,7.00
2023-03-22T08:54:37.238Z,6.50
2023-03-22T08:55:40.068Z,8.25
2023-03-22T08:56:42.073Z,6.75
2023-03-22T08:57:50.152Z,8.25
2023-03-22T08:58:52.761Z,8.00
2023-03-22T08:59:54.401Z,8.00
2023-03-22T09:00:57.096Z,7.25
2023-03-22T09:01:59.095Z,7.00
2023-03-22T09:03:01.765Z,8.00
2023-03-22T09:04:05.294Z,8.00
2023-03-22T09:05:08.573Z,8.75
2023-03-22T09:06:11.670Z,8.50
2023-03-22T09:07:13.289Z,8.75
2023-03-22T09:08:19.546Z,8.00
2023-03-22T09:09:22.306Z,9.00
2023-03-22T09:10:26.275Z,7.75
2023-03-22T09:11:27.962Z,6.00
2023-03-22T09:12:30.727Z,6.50
2023-03-22T09:13:33.686Z,7.00
2023-03-22T09:14:35.351Z,7.50
2023-03-22T09:15:38.297Z,8.00
2023-03-22T09:16:40.188Z,7.25
2023-03-22T09:17:42.852Z,7.75
2023-03-22T09:18:44.665Z,7.75
2023-03-22T09:19:48.020Z,5.00
2023-03-22T09:20:49.687Z,8.00
2023-03-22T09:21:52.369Z,8.00
2023-03-22T09:22:54.034Z,7.00
2023-03-22T09:23:56.684Z,7.00
2023-03-22T09:24:58.306Z,7.00
2023-03-22T09:26:02.501Z,7.00
2023-03-22T09:27:04.535Z,8.00
2023-03-22T09:28:07.189Z,7.00
2023-03-22T09:29:09.927Z,9.75
2023-03-22T09:30:12.988Z,7.00
2023-03-22T09:31:14.677Z,8.00
2023-03-22T09:32:17.393Z,7.00
2023-03-22T09:33:19.990Z,7.75
2023-03-22T09:34:21.970Z,7.00
2023-03-22T09:35:24.627Z,7.75
2023-03-22T09:36:26.278Z,7.00
2023-03-22T09:37:30.238Z,7.00
2023-03-22T09:38:33.595Z,7.00
2023-03-22T09:39:38.369Z,7.00
2023-03-22T09:40:43.985Z,6.50
2023-03-22T09:41:49.811Z,7.00
2023-03-22T09:42:53.223Z,6.50
2023-03-22T09:43:56.515Z,6.50
2023-03-22T09:44:58.128Z,6.50
2023-03-22T09:46:00.787Z,7.00
2023-03-22T09:47:05.479Z,8.00
2023-03-22T09:48:12.589Z,7.25
2023-03-22T09:49:16.298Z,7.00
2023-03-22T09:50:21.739Z,7.75
2023-03-22T09:51:29.732Z,5.00
2023-03-22T09:52:32.368Z,6.75
2023-03-22T09:53:35.080Z,8.00
2023-03-22T09:54:38.123Z,6.75
2023-03-22T09:55:42.447Z,5.00
2023-03-22T09:56:46.264Z,6.00
2023-03-22T09:57:52.053Z,5.00
2023-03-22T09:58:56.147Z,6.75
2023-03-22T09:59:59.655Z,5.00
2023-03-22T10:01:04.344Z,5.75
2023-03-22T10:02:19.358Z,7.50
2023-03-22T10:03:24.929Z,5.00
2023-03-22T10:04:45.228Z,5.00
2023-03-22T10:05:49.106Z,8.00
2023-03-22T10:06:51.298Z,5.00
2023-03-22T10:08:26.392Z,5.00
2023-03-22T10:09:29.520Z,4.75
2023-03-22T10:10:32.148Z,8.00
2023-03-22T10:11:39.468Z,5.00
2023-03-22T10:12:43.991Z,4.25
2023-03-22T10:13:50.497Z,4.25
2023-03-22T10:14:58.735Z,5.00
2023-03-22T10:16:03.176Z,4.00
2023-03-22T10:17:06.970Z,5.50
2023-03-22T10:18:12.378Z,4.00
2023-03-22T10:19:17.289Z,4.75
2023-03-22T10:20:24.984Z,4.25
2023-03-22T10:21:26.602Z,5.00
2023-03-22T10:22:30.836Z,5.00
2023-03-22T10:23:34.451Z,4.00
2023-03-22T10:24:37.808Z,5.25
2023-03-22T10:25:40.550Z,4.75
2023-03-22T10:26:44.992Z,4.00
2023-03-22T10:27:46.921Z,4.75
2023-03-22T10:28:51.701Z,5.00
2023-03-22T10:29:55.207Z,5.00
2023-03-22T10:30:58.368Z,5.25
2023-03-22T10:32:10.077Z,4.50
2023-03-22T10:33:13.761Z,4.00
2023-03-22T10:34:19.470Z,4.00
2023-03-22T10:35:21.149Z,4.75
2023-03-22T10:36:24.824Z,4.00
2023-03-22T10:37:29.745Z,4.00
2023-03-22T10:38:32.367Z,6.00
2023-03-22T10:39:35.110Z,5.00
2023-03-22T10:40:40.356Z,5.00
2023-03-22T10:41:41.997Z,5.00
2023-03-22T10:42:44.576Z,5.00
2023-03-22T10:43:48.914Z,3.00
2023-03-22T10:44:53.526Z,4.00
2023-03-22T10:45:56.721Z,4.25
2023-03-22T10:47:00.600Z,4.50
2023-03-22T10:48:03.805Z,5.00
2023-03-22T10:49:06.506Z,5.00
2023-03-22T10:50:12.348Z,5.00
2023-03-22T10:51:22.528Z,4.00
2023-03-22T10:52:36.856Z,5.00
2023-03-22T10:53:40.082Z,4.00
2023-03-22T10:54:41.706Z,4.25
2023-03-22T10:55:44.746Z,3.75
2023-03-22T10:56:46.416Z,3.75
2023-03-22T10:57:53.090Z,3.75
2023-03-22T10:58:56.639Z,3.75
2023-03-22T10:59:59.636Z,4.00
2023-03-22T11:01:05.392Z,5.25
2023-03-22T11:02:19.999Z,3.75
2023-03-22T11:03:28.590Z,4.00
2023-03-22T11:04:31.566Z,4.25
2023-03-22T11:05:33.227Z,5.00
2023-03-22T11:06:39.486Z,5.25
2023-03-22T11:07:43.729Z,3.00
2023-03-22T11:08:47.358Z,3.75
2023-03-22T11:09:49.663Z,4.00
2023-03-22T11:10:52.668Z,4.00
2023-03-22T11:11:56.491Z,3.00
2023-03-22T11:13:12.039Z,4.00
2023-03-22T11:14:15.513Z,3.75
2023-03-22T11:15:26.664Z,4.50
2023-03-22T11:16:29.983Z,3.00
2023-03-22T11:17:31.663Z,4.75
2023-03-22T11:18:35.147Z,5.00
2023-03-22T11:19:37.730Z,3.75
2023-03-22T11:20:41.128Z,5.50
2023-03-22T11:21:44.335Z,3.75
2023-03-22T11:22:47.473Z,3.75
2023-03-22T11:23:55.364Z,3.75
2023-03-22T11:24:57.688Z,4.00
2023-03-22T11:26:01.585Z,4.25
2023-03-22T11:27:05.557Z,4.25
2023-03-22T11:28:09.894Z,3.75
2023-03-22T11:29:14.277Z,4.25
2023-03-22T11:30:20.254Z,5.00
2023-03-22T11:31:25.919Z,4.00
2023-03-22T11:32:28.941Z,2.00
2023-03-22T11:33:32.026Z,3.75
2023-03-22T11:34:34.632Z,4.50
2023-03-22T11:35:38.392Z,3.00
2023-03-22T11:36:42.288Z,3.75
2023-03-22T11:37:45.871Z,3.75
2023-03-22T11:38:48.791Z,3.75
2023-03-22T11:39:52.094Z,4.75
2023-03-22T11:40:55.011Z,3.75
2023-03-22T11:41:59.762Z,4.00
2023-03-22T11:43:08.222Z,3.75
2023-03-22T11:44:11.450Z,3.75
2023-03-22T11:45:15.401Z,2.00
2023-03-22T11:46:19.197Z,3.00
2023-03-22T11:47:23.247Z,2.00
2023-03-22T11:48:27.023Z,3.00
2023-03-22T11:49:37.419Z,2.25
2023-03-22T11:50:40.146Z,3.00
2023-03-22T11:51:42.994Z,2.75
2023-03-22T11:52:46.894Z,3.00
2023-03-22T11:53:49.485Z,3.00
2023-03-22T11:54:51.114Z,5.00
2023-03-22T11:55:54.830Z,3.25
2023-03-22T11:56:58.252Z,3.75
2023-03-22T11:58:00.890Z,3.00
2023-03-22T11:59:05.741Z,3.00
2023-03-22T12:00:11.970Z,3.00
2023-03-22T12:01:15.669Z,3.75
2023-03-22T12:02:24.540Z,3.00
2023-03-22T12:03:27.628Z,5.00
2023-03-22T12:04:31.262Z,3.00
2023-03-22T12:05:33.928Z,5.00
2023-03-22T12:06:38.301Z,3.00
2023-03-22T12:07:41.112Z,3.75
2023-03-22T12:08:44.616Z,3.00
2023-03-22T12:09:49.714Z,2.00
2023-03-22T12:10:54.933Z,2.75
2023-03-22T12:11:57.285Z,3.50
2023-03-22T12:13:02.090Z,3.00
2023-03-22T12:14:05.580Z,3.00
2023-03-22T12:15:11.899Z,2.50
2023-03-22T12:16:14.982Z,4.00
2023-03-22T12:17:19.793Z,3.00
2023-03-22T12:18:27.521Z,3.00
2023-03-22T12:19:37.939Z,4.25
2023-03-22T12:20:43.015Z,3.00
2023-03-22T12:21:45.422Z,2.00
2023-03-22T12:22:51.303Z,2.75
2023-03-22T12:24:01.471Z,3.75
2023-03-22T12:25:04.934Z,4.75
2023-03-22T12:26:08.437Z,3.00
2023-03-22T12:27:15.996Z,3.00
2023-03-22T12:28:19.653Z,2.50
2023-03-22T12:29:21.337Z,5.25
2023-03-22T12:30:24.716Z,3.75
2023-03-22T12:31:29.007Z,3.00
2023-03-22T12:32:34.353Z,3.00
2023-03-22T12:33:39.103Z,3.00
2023-03-22T12:34:42.878Z,5.00
2023-03-22T12:35:46.338Z,3.00
2023-03-22T12:36:49.300Z,2.25
2023-03-22T12:37:53.032Z,2.25
2023-03-22T12:38:56.939Z,3.00
2023-03-22T12:40:00.716Z,2.25
2023-03-22T12:41:05.020Z,4.00
2023-03-22T12:42:13.149Z,3.50
2023-03-22T12:43:17.123Z,2.25
2023-03-22T12:44:22.430Z,3.00
2023-03-22T12:45:26.319Z,4.50
2023-03-22T12:46:30.490Z,4.50
2023-03-22T12:47:33.934Z,3.00
2023-03-22T12:48:40.007Z,2.50
2023-03-22T12:49:44.013Z,4.00
2023-03-22T12:50:48.130Z,3.00
2023-03-22T12:51:50.793Z,4.00
2023-03-22T12:52:56.678Z,2.25
2023-03-22T12:54:00.366Z,3.00
2023-03-22T12:55:02.025Z,4.00
2023-03-22T12:56:04.787Z,4.00
2023-03-22T12:57:06.499Z,3.00
2023-03-22T12:58:10.434Z,2.00
2023-03-22T12:59:14.770Z,2.00
2023-03-22T13:00:18.170Z,3.00
2023-03-22T13:01:22.804Z,3.00
2023-03-22T13:02:27.360Z,2.00
2023-03-22T13:03:41.921Z,3.50
2023-03-22T13:04:50.863Z,2.50
2023-03-22T13:06:01.208Z,3.00
2023-03-22T13:07:14.574Z,2.75
2023-03-22T13:08:20.110Z,3.50
2023-03-22T13:09:36.911Z,4.75
2023-03-22T13:10:50.791Z,3.00
2023-03-22T13:12:26.848Z,4.50
2023-03-22T13:13:41.746Z,3.25
2023-03-22T13:14:58.739Z,3.75
2023-03-22T13:16:02.215Z,2.00
2023-03-22T13:17:05.030Z,2.00
2023-03-22T13:18:33.572Z,2.50
2023-03-22T13:19:37.815Z,2.50
2023-03-22T13:20:41.159Z,3.00
2023-03-22T13:21:45.623Z,3.00
2023-03-22T13:23:26.901Z,3.00
2023-03-22T13:24:32.531Z,2.00
2023-03-22T13:25:35.753Z,3.00
2023-03-22T13:26:40.344Z,4.50
2023-03-22T13:27:44.818Z,2.50
2023-03-22T13:28:55.970Z,3.00
2023-03-22T13:29:57.877Z,3.00
2023-03-22T13:31:00.493Z,3.00
2023-03-22T13:32:04.217Z,3.00
2023-03-22T13:33:13.504Z,2.00
2023-03-22T13:34:18.915Z,3.00
2023-03-22T13:35:27.871Z,3.00
2023-03-22T13:36:31.922Z,3.00
2023-03-22T13:37:45.200Z,2.00
2023-03-22T13:38:47.995Z,3.00
2023-03-22T13:39:51.781Z,3.00
2023-03-22T13:40:59.510Z,2.00
2023-03-22T13:42:10.221Z,2.00
2023-03-22T13:43:13.788Z,2.25
2023-03-22T13:44:27.204Z,2.00
2023-03-22T13:45:31.471Z,3.00
2023-03-22T13:46:50.703Z,2.00
2023-03-22T13:48:14.022Z,2.00
2023-03-22T13:49:47.429Z,2.00
2023-03-22T13:50:51.382Z,4.00
2023-03-22T13:51:53.064Z,3.00
2023-03-22T13:52:58.219Z,2.00
2023-03-22T13:54:03.515Z,3.00
2023-03-22T13:55:15.543Z,5.00
2023-03-22T13:56:29.030Z,3.75
2023-03-22T13:57:40.914Z,2.00
2023-03-22T13:58:51.118Z,2.00
2023-03-22T14:00:09.558Z,3.75